Time;durP1;ratioP1;P1;durP2;ratioP2;P2;SDS_P1;SDS_P2;PMS_P1;PMS_P2;Temp;Humidity;BMP_temperature;BMP_pressure;BME280_temperature;BME280_humidity;BME280_pressure;Samples;Min_cycle;Max_cycle;Signal;HPM_P1;HPM_P2
2021/01/08 00:00:51;;;;;;;2.00;1.40;;;;;;;1.42;85.46;98608.75;124541;1144;22673;-64
2021/01/08 00:03:18;;;;;;;1.70;1.15;;;;;;;1.38;85.20;98600.31;124502;1143;23523;-64
2021/01/08 00:05:46;;;;;;;1.50;1.27;;;;;;;1.38;84.65;98607.55;124618;1142;22722;-64
2021/01/08 00:08:13;;;;;;;1.03;0.90;;;;;;;1.36;85.28;98610.44;124473;1144;22802;-64
2021/01/08 00:10:40;;;;;;;1.33;1.00;;;;;;;1.37;84.67;98622.82;124669;1142;22708;-64
2021/01/08 00:13:08;;;;;;;1.97;1.27;;;;;;;1.37;85.13;98620.14;124506;1144;22688;-64
2021/01/08 00:15:35;;;;;;;2.10;1.35;;;;;;;1.37;85.07;98624.69;124591;1143;22696;-64
2021/01/08 00:18:03;;;;;;;1.40;1.20;;;;;;;1.38;84.65;98623.64;124594;1144;22684;-64
2021/01/08 00:20:30;;;;;;;1.70;1.30;;;;;;;1.42;85.09;98635.59;124516;1144;22658;-64
2021/01/08 00:22:58;;;;;;;1.65;1.20;;;;;;;1.42;84.87;98635.59;124666;1144;22738;-64
2021/01/08 00:25:27;;;;;;;2.87;1.50;;;;;;;1.44;84.29;98635.37;124503;1143;22758;-64
2021/01/08 00:27:57;;;;;;;2.33;1.70;;;;;;;1.44;84.92;98646.11;124752;1142;23352;-64
2021/01/08 00:30:24;;;;;;;3.05;1.80;;;;;;;1.43;84.27;98644.45;124359;1144;22716;-64
2021/01/08 00:32:52;;;;;;;4.20;2.40;;;;;;;1.42;84.12;98643.64;124604;1143;22651;-64
2021/01/08 00:35:19;;;;;;;5.55;3.10;;;;;;;1.44;83.89;98644.24;124542;1142;23374;-64
2021/01/08 00:37:46;;;;;;;8.10;4.03;;;;;;;1.42;84.02;98646.32;124766;1144;23489;-64
2021/01/08 00:40:14;;;;;;;13.85;5.70;;;;;;;1.43;83.79;98636.41;124598;1142;22760;-64
2021/01/08 00:42:41;;;;;;;18.80;6.87;;;;;;;1.42;83.40;98649.01;124580;1144;22673;-64
2021/01/08 00:45:10;;;;;;;26.57;9.80;;;;;;;1.40;83.18;98649.22;124578;1144;24094;-63
2021/01/08 00:47:37;;;;;;;32.20;13.60;;;;;;;1.37;83.09;98646.97;124679;1143;22786;-64
2021/01/08 00:50:05;;;;;;;34.07;13.43;;;;;;;1.35;82.62;98651.73;124603;1144;22710;-64
2021/01/08 00:52:32;;;;;;;6.70;3.65;;;;;;;1.32;83.52;98644.12;124585;1144;22680;-64
2021/01/08 00:55:00;;;;;;;4.13;2.30;;;;;;;1.30;82.41;98646.20;124533;1143;22694;-64
2021/01/08 00:57:34;;;;;;;5.80;2.90;;;;;;;1.31;83.20;98644.33;124513;1144;22670;-64
2021/01/08 01:00:03;;;;;;;4.30;2.30;;;;;;;1.29;82.53;98646.44;124630;1144;22699;-64
2021/01/08 01:02:32;;;;;;;4.80;2.10;;;;;;;1.30;82.72;98658.82;124653;1142;22876;-64
2021/01/08 01:04:59;;;;;;;7.43;3.17;;;;;;;1.29;82.43;98657.17;124549;1143;23399;-64
2021/01/08 01:07:27;;;;;;;9.93;3.67;;;;;;;1.29;81.68;98658.00;124628;1144;23551;-64
2021/01/08 01:09:54;;;;;;;17.60;5.45;;;;;;;1.30;82.22;98659.61;124642;1142;22705;-64
2021/01/08 01:12:22;;;;;;;7.70;3.00;;;;;;;1.30;81.92;98669.55;124614;1144;22676;-64
2021/01/08 01:14:49;;;;;;;10.20;3.63;;;;;;;1.28;82.15;98674.31;124692;1144;22793;-64
2021/01/08 01:17:17;;;;;;;19.35;6.85;;;;;;;1.28;81.16;98672.45;120688;1144;22926;-63
2021/01/08 01:19:44;;;;;;;13.27;4.57;;;;;;;1.27;82.15;98676.17;120221;1144;22993;-63
2021/01/08 01:22:12;;;;;;;6.57;2.87;;;;;;;1.26;81.38;98676.39;120236;1144;22933;-63
2021/01/08 01:24:39;;;;;;;6.27;2.50;;;;;;;1.26;81.48;98679.08;120338;1144;24581;-63
2021/01/08 01:27:08;;;;;;;9.73;4.27;;;;;;;1.25;81.81;98677.43;124421;1144;22774;-64
2021/01/08 01:29:35;;;;;;;9.70;3.35;;;;;;;1.26;82.19;98684.44;124620;1142;22779;-64
2021/01/08 01:32:02;;;;;;;10.13;3.67;;;;;;;1.26;81.63;98684.44;124554;1142;22699;-64
2021/01/08 01:34:30;;;;;;;10.70;2.85;;;;;;;1.25;81.71;98680.11;124614;1142;22704;-64
2021/01/08 01:36:57;;;;;;;15.73;5.50;;;;;;;1.28;82.45;98699.28;124514;1144;23303;-64
2021/01/08 01:41:49;;;;;;;9.30;3.60;;;;;;;1.27;81.39;98696.81;119997;1148;22928;-63
2021/01/08 01:44:16;;;;;;;13.53;4.10;;;;;;;1.28;82.11;98704.66;124273;1146;22985;-63
2021/01/08 01:46:44;;;;;;;9.00;3.10;;;;;;;1.26;81.78;98690.63;124171;1148;23306;-64
2021/01/08 01:49:11;;;;;;;14.23;4.53;;;;;;;1.27;81.46;98696.81;124448;1147;22707;-63
2021/01/08 01:51:39;;;;;;;11.23;4.37;;;;;;;1.25;81.83;98702.40;124233;1147;22763;-63
2021/01/08 01:54:07;;;;;;;8.43;3.50;;;;;;;1.27;82.18;98697.64;124254;1148;22726;-64
2021/01/08 01:56:34;;;;;;;12.05;4.45;;;;;;;1.27;81.51;98699.50;121714;1148;23394;-63
2021/01/08 01:59:02;;;;;;;7.80;3.00;;;;;;;1.28;81.37;98699.28;119875;1148;26124;-62
2021/01/08 02:01:30;;;;;;;8.70;3.10;;;;;;;1.29;81.71;98694.74;119936;1148;25934;-61
2021/01/08 02:03:57;;;;;;;10.07;3.90;;;;;;;1.29;81.14;98700.11;119889;1148;26568;-61
2021/01/08 02:06:34;;;;;;;7.40;3.20;;;;;;;1.32;81.49;98697.78;119946;1148;23215;-62
2021/01/08 02:09:06;;;;;;;6.40;2.83;;;;;;;1.33;82.01;98706.66;119842;1148;22924;-62
2021/01/08 02:11:34;;;;;;;3.90;2.10;;;;;;;1.33;81.03;98704.80;124299;1147;22680;-63
2021/01/08 02:14:15;;;;;;;11.90;4.90;;;;;;;1.34;81.94;98708.30;123963;1147;22722;-63
2021/01/08 02:16:43;;;;;;;11.95;4.85;;;;;;;1.32;81.88;98716.57;124161;1148;22672;-63
2021/01/08 02:19:14;;;;;;;7.33;3.77;;;;;;;1.32;82.34;98708.52;124111;1148;22677;-63
2021/01/08 02:21:52;;;;;;;6.10;3.53;;;;;;;1.35;81.69;98716.14;124103;1148;22698;-63
2021/01/08 02:24:33;;;;;;;5.27;2.63;;;;;;;1.38;81.57;98714.89;124236;1147;22656;-63
2021/01/08 02:27:01;;;;;;;7.70;2.80;;;;;;;1.40;82.04;98724.37;120909;1148;23002;-62
2021/01/08 02:29:28;;;;;;;5.80;2.53;;;;;;;1.43;82.40;98730.34;119737;1148;22917;-62
2021/01/08 02:31:56;;;;;;;4.93;2.50;;;;;;;1.43;81.20;98719.61;124129;1148;22790;-63
2021/01/08 02:34:24;;;;;;;6.35;3.40;;;;;;;1.44;81.37;98735.50;124171;1148;22663;-63
2021/01/08 02:36:51;;;;;;;4.83;3.10;;;;;;;1.44;80.75;98732.81;124303;1148;22713;-63
2021/01/08 02:39:20;;;;;;;6.60;3.47;;;;;;;1.43;81.35;98738.39;124174;1147;23319;-63
2021/01/08 02:41:47;;;;;;;3.37;2.27;;;;;;;1.40;82.22;98743.16;124233;1148;23629;-64
2021/01/08 02:44:15;;;;;;;4.10;2.35;;;;;;;1.42;81.15;98742.94;124082;1148;22732;-63
2021/01/08 02:46:46;;;;;;;3.27;2.57;;;;;;;1.43;81.74;98746.45;124160;1148;24338;-63
2021/01/08 02:49:13;;;;;;;3.00;2.10;;;;;;;1.45;81.94;98747.84;124248;1147;22676;-63
2021/01/08 02:51:41;;;;;;;3.07;2.10;;;;;;;1.46;81.73;98745.98;124392;1146;22805;-63
2021/01/08 02:54:09;;;;;;;3.40;2.73;;;;;;;1.47;81.42;98744.95;124087;1148;23271;-63
2021/01/08 02:56:43;;;;;;;3.50;2.57;;;;;;;1.49;82.29;98741.02;121458;1148;22935;-62
2021/01/08 02:59:10;;;;;;;3.30;2.20;;;;;;;1.49;81.64;98742.87;124072;1148;22783;-63
2021/01/08 03:01:38;;;;;;;6.00;2.40;;;;;;;1.50;82.14;98747.20;124044;1148;23536;-62
2021/01/08 03:04:06;;;;;;;2.55;2.10;;;;;;;1.48;81.83;98744.73;124224;1145;22683;-62
2021/01/08 03:06:33;;;;;;;3.60;2.33;;;;;;;1.47;81.57;98761.88;124131;1148;22688;-62
2021/01/08 03:09:01;;;;;;;2.50;2.13;;;;;;;1.48;81.48;98758.16;124256;1146;22686;-62
2021/01/08 03:11:29;;;;;;;2.97;1.93;;;;;;;1.49;81.87;98758.98;124141;1146;22736;-62
2021/01/08 03:13:56;;;;;;;2.35;1.90;;;;;;;1.50;81.84;98766.81;124306;1148;22700;-62
2021/01/08 03:16:24;;;;;;;1.95;1.75;;;;;;;1.49;81.21;98767.03;124172;1148;22685;-62
2021/01/08 03:18:52;;;;;;;2.77;2.00;;;;;;;1.52;81.87;98774.66;124319;1148;22765;-65
2021/01/08 03:21:19;;;;;;;2.67;2.37;;;;;;;1.53;81.53;98778.98;123987;1148;22819;-62
2021/01/08 03:23:47;;;;;;;3.15;2.20;;;;;;;1.54;81.84;98773.41;124278;1146;22651;-63
2021/01/08 03:26:14;;;;;;;2.90;2.40;;;;;;;1.54;81.43;98773.41;124140;1146;22771;-62
2021/01/08 03:28:42;;;;;;;2.90;2.20;;;;;;;1.54;82.16;98781.45;124156;1148;22708;-62
2021/01/08 03:31:09;;;;;;;3.37;2.20;;;;;;;1.56;81.61;98773.19;124128;1148;22685;-62
2021/01/08 03:33:37;;;;;;;2.67;2.00;;;;;;;1.55;82.04;98780.42;124308;1146;22664;-62
2021/01/08 03:36:05;;;;;;;2.77;2.13;;;;;;;1.56;81.63;98786.61;124302;1146;22692;-63
2021/01/08 03:38:32;;;;;;;2.80;2.17;;;;;;;1.56;81.60;98790.12;124261;1148;22683;-63
2021/01/08 03:41:00;;;;;;;3.43;2.40;;;;;;;1.55;81.10;98793.84;124154;1146;22722;-62
2021/01/08 03:43:28;;;;;;;3.03;2.20;;;;;;;1.56;82.17;98790.12;124412;1148;22737;-62
2021/01/08 03:45:55;;;;;;;3.00;2.23;;;;;;;1.58;82.09;98801.47;124220;1148;23735;-63
2021/01/08 03:48:24;;;;;;;3.17;2.30;;;;;;;1.59;81.22;98797.71;124172;1148;22682;-62
2021/01/08 03:50:51;;;;;;;3.13;2.50;;;;;;;1.61;82.10;98797.49;124299;1148;23368;-62
2021/01/08 03:53:18;;;;;;;4.55;2.30;;;;;;;1.61;81.55;98794.81;124008;1148;22890;-63
2021/01/08 03:55:46;;;;;;;4.47;2.70;;;;;;;1.60;81.66;98804.73;124260;1145;22684;-62
2021/01/08 03:58:13;;;;;;;3.63;2.57;;;;;;;1.63;82.29;98808.84;124113;1147;22672;-62
2021/01/08 04:00:40;;;;;;;3.40;2.60;;;;;;;1.63;81.48;98806.16;124256;1148;23294;-62
2021/01/08 04:03:08;;;;;;;4.30;2.83;;;;;;;1.65;81.93;98807.59;124263;1148;22682;-63
2021/01/08 04:05:36;;;;;;;6.45;2.90;;;;;;;1.68;82.28;98806.34;124246;1148;23473;-62
2021/01/08 04:08:03;;;;;;;3.90;2.70;;;;;;;1.69;82.67;98802.61;124089;1148;22676;-63
2021/01/08 04:10:31;;;;;;;3.83;2.90;;;;;;;1.68;82.39;98809.84;124305;1148;22894;-62
2021/01/08 04:12:59;;;;;;;4.83;2.90;;;;;;;1.68;81.93;98809.84;124271;1148;22672;-62
2021/01/08 04:15:26;;;;;;;4.60;3.47;;;;;;;1.70;82.57;98826.56;124166;1148;22702;-63
2021/01/08 04:17:53;;;;;;;5.47;2.67;;;;;;;1.71;81.53;98822.02;124121;1148;22754;-62
2021/01/08 04:20:22;;;;;;;5.03;3.40;;;;;;;1.71;82.50;98825.53;124271;1148;22676;-63
2021/01/08 04:22:49;;;;;;;5.20;3.60;;;;;;;1.72;82.04;98824.48;124147;1148;22783;-65
2021/01/08 04:25:16;;;;;;;5.70;3.50;;;;;;;1.73;81.92;98828.80;124245;1146;22761;-62
2021/01/08 04:27:43;;;;;;;6.70;5.23;;;;;;;1.75;82.32;98831.27;124173;1148;22673;-62
2021/01/08 04:30:12;;;;;;;6.53;4.67;;;;;;;1.77;81.82;98842.61;124167;1146;22680;-62
2021/01/08 04:32:39;;;;;;;6.83;4.63;;;;;;;1.76;82.29;98847.16;124299;1148;23750;-64
2021/01/08 04:35:08;;;;;;;8.45;5.25;;;;;;;1.77;82.19;98845.30;124241;1146;23439;-63
2021/01/08 04:37:36;;;;;;;8.73;5.57;;;;;;;1.76;82.98;98833.73;124210;1146;23523;-64
2021/01/08 04:40:05;;;;;;;6.20;4.33;;;;;;;1.76;82.49;98839.11;124268;1148;22951;-64
2021/01/08 04:42:33;;;;;;;7.57;4.87;;;;;;;1.77;82.44;98843.44;124173;1149;23447;-62
2021/01/08 04:45:03;;;;;;;8.90;5.40;;;;;;;1.77;82.98;98842.61;124138;1146;23605;-61
2021/01/08 04:47:31;;;;;;;9.00;5.60;;;;;;;1.78;82.71;98855.00;124087;1148;23964;-61
2021/01/08 04:50:00;;;;;;;9.00;5.75;;;;;;;1.81;82.50;98859.13;124063;1148;23868;-64
2021/01/08 04:52:27;;;;;;;8.87;5.73;;;;;;;1.83;81.99;98855.19;124304;1148;22691;-63
2021/01/08 04:54:55;;;;;;;11.80;6.35;;;;;;;1.83;82.75;98862.41;124057;1148;22682;-64
2021/01/08 04:57:23;;;;;;;10.93;6.23;;;;;;;1.82;82.95;98869.65;124189;1148;23303;-63
2021/01/08 04:59:50;;;;;;;10.23;6.53;;;;;;;1.74;82.46;98851.92;124073;1148;22672;-63
2021/01/08 05:02:18;;;;;;;12.20;7.35;;;;;;;1.81;82.41;98864.49;124136;1148;23469;-63
2021/01/08 05:04:45;;;;;;;14.40;8.15;;;;;;;1.81;82.77;98859.13;124109;1148;22678;-63
2021/01/08 05:07:13;;;;;;;12.20;8.10;;;;;;;1.81;82.65;98877.92;124201;1148;22681;-61
2021/01/08 05:09:40;;;;;;;11.23;7.97;;;;;;;1.80;82.44;98877.09;124168;1148;22683;-62
2021/01/08 05:12:07;;;;;;;12.93;7.83;;;;;;;1.81;82.95;98870.69;124299;1147;22699;-61
2021/01/08 05:14:35;;;;;;;16.33;9.73;;;;;;;1.82;82.99;98874.20;124183;1148;23428;-62
2021/01/08 05:17:02;;;;;;;15.17;9.67;;;;;;;1.81;82.68;98875.23;124229;1148;23124;-62
2021/01/08 05:19:30;;;;;;;14.93;9.63;;;;;;;1.82;82.25;98866.14;124146;1148;22787;-62
2021/01/08 05:21:57;;;;;;;16.55;8.95;;;;;;;1.82;82.23;98866.96;124410;1146;26775;-62
2021/01/08 05:24:25;;;;;;;11.75;8.30;;;;;;;1.84;82.44;98864.06;124416;1146;22676;-62
2021/01/08 05:26:52;;;;;;;14.23;8.20;;;;;;;1.80;82.21;98857.47;124335;1146;22760;-62
2021/01/08 05:29:19;;;;;;;18.37;9.20;;;;;;;1.79;82.73;98862.02;124497;1146;22667;-62
2021/01/08 05:31:48;;;;;;;13.00;8.25;;;;;;;1.78;82.62;98877.31;124324;1146;22703;-62
2021/01/08 05:34:23;;;;;;;17.37;9.77;;;;;;;1.78;82.63;98871.11;124456;1146;23265;-62
2021/01/08 05:36:50;;;;;;;18.13;10.07;;;;;;;1.80;82.44;98881.64;124212;1145;22666;-62
2021/01/08 05:39:18;;;;;;;15.43;9.57;;;;;;;1.79;83.10;98878.13;124414;1146;23831;-62
2021/01/08 05:41:46;;;;;;;18.40;11.17;;;;;;;1.78;82.43;98887.23;124230;1146;22731;-62
2021/01/08 05:44:14;;;;;;;17.03;11.00;;;;;;;1.76;82.18;98900.87;124431;1146;22690;-62
2021/01/08 05:46:41;;;;;;;18.40;11.00;;;;;;;1.78;82.66;98906.03;124334;1146;22760;-62
2021/01/08 05:49:09;;;;;;;21.47;13.30;;;;;;;1.80;83.24;98913.88;124329;1146;22760;-62
2021/01/08 05:51:37;;;;;;;18.27;11.33;;;;;;;1.81;82.59;98912.83;124369;1146;23525;-63
2021/01/08 05:54:05;;;;;;;21.10;11.70;;;;;;;1.82;82.13;98922.54;124457;1146;22687;-62
2021/01/08 05:56:36;;;;;;;24.70;12.20;;;;;;;1.80;81.84;98919.24;124239;1146;22658;-62
2021/01/08 05:59:04;;;;;;;22.55;12.10;;;;;;;1.80;82.55;98921.93;124407;1146;22670;-62
2021/01/08 06:01:38;;;;;;;28.25;15.20;;;;;;;1.78;82.09;98920.28;124293;1146;23489;-62
2021/01/08 06:04:07;;;;;;;34.20;17.60;;;;;;;1.80;82.50;98943.41;124493;1146;22648;-62
2021/01/08 06:06:39;;;;;;;33.10;17.50;;;;;;;1.80;83.01;98936.18;121747;1146;24584;-63
2021/01/08 06:09:07;;;;;;;32.23;17.77;;;;;;;1.82;82.39;98944.84;124484;1146;22769;-63
2021/01/08 06:11:35;;;;;;;33.70;20.70;;;;;;;1.81;82.71;98945.06;124373;1146;22663;-63
2021/01/08 06:14:03;;;;;;;31.50;18.27;;;;;;;1.80;82.20;98944.23;124413;1146;22717;-63
2021/01/08 06:16:38;;;;;;;31.20;17.35;;;;;;;1.78;82.09;98944.45;124402;1146;23334;-63
2021/01/08 06:19:05;;;;;;;30.10;17.25;;;;;;;1.77;82.01;98958.09;124318;1146;23851;-64
2021/01/08 06:21:34;;;;;;;26.30;13.85;;;;;;;1.76;82.27;98959.13;124446;1146;22774;-63
2021/01/08 06:24:01;;;;;;;26.65;15.10;;;;;;;1.75;82.23;98965.53;124265;1146;22673;-63
2021/01/08 06:26:30;;;;;;;26.43;14.77;;;;;;;1.75;81.96;98968.22;124468;1145;22918;-63
2021/01/08 06:29:01;;;;;;;23.40;14.00;;;;;;;1.74;82.41;98975.45;124409;1146;22711;-64
2021/01/08 06:31:43;;;;;;;31.10;16.43;;;;;;;1.67;82.46;98971.17;124457;1146;24280;-64
2021/01/08 06:34:11;;;;;;;29.05;16.55;;;;;;;1.76;83.15;98981.44;124463;1146;22663;-63
2021/01/08 06:36:45;;;;;;;28.40;15.50;;;;;;;1.74;82.14;98980.83;124446;1146;22761;-63
2021/01/08 06:39:21;;;;;;;31.10;16.70;;;;;;;1.73;82.40;98987.23;124327;1146;23396;-62
2021/01/08 06:41:51;;;;;;;28.67;16.33;;;;;;;1.73;82.14;98997.17;124497;1146;23548;-62
2021/01/08 06:44:23;;;;;;;27.87;16.00;;;;;;;1.72;81.97;99004.41;124325;1146;23543;-63
2021/01/08 06:46:54;;;;;;;32.80;17.03;;;;;;;1.68;82.79;99005.86;124416;1146;22675;-63
2021/01/08 06:49:21;;;;;;;32.65;17.00;;;;;;;1.68;82.15;99008.55;124340;1146;22670;-63
2021/01/08 06:51:49;;;;;;;25.07;14.57;;;;;;;1.67;82.17;99006.08;124336;1146;23528;-63
2021/01/08 06:54:16;;;;;;;26.50;16.60;;;;;;;1.67;82.44;99009.58;124276;1146;22679;-63
2021/01/08 06:56:45;;;;;;;32.40;18.37;;;;;;;1.68;82.42;99013.09;124529;1146;22687;-64
2021/01/08 06:59:14;;;;;;;32.97;18.10;;;;;;;1.67;81.78;99016.81;124321;1146;22678;-63
2021/01/08 07:01:44;;;;;;;31.85;18.40;;;;;;;1.66;82.63;99009.80;124367;1146;22705;-64
2021/01/08 07:04:12;;;;;;;30.77;17.17;;;;;;;1.65;82.56;99022.39;124394;1146;22672;-64
2021/01/08 07:06:39;;;;;;;29.57;17.60;;;;;;;1.66;82.34;99023.22;124386;1147;22657;-64
2021/01/08 07:09:07;;;;;;;29.13;15.53;;;;;;;1.67;82.42;99022.19;124392;1145;22766;-63
2021/01/08 07:11:35;;;;;;;27.07;15.57;;;;;;;1.68;82.03;99024.66;124404;1146;22672;-63
2021/01/08 07:14:06;;;;;;;28.80;15.95;;;;;;;1.70;82.30;99030.64;124346;1146;22874;-63
2021/01/08 07:16:34;;;;;;;27.97;15.47;;;;;;;1.72;82.44;99039.31;124510;1146;22769;-63
2021/01/08 07:19:05;;;;;;;30.13;16.80;;;;;;;1.73;81.99;99038.25;124428;1146;22688;-63
2021/01/08 07:21:33;;;;;;;29.60;17.70;;;;;;;1.73;82.75;99035.56;124407;1146;22789;-63
2021/01/08 07:24:01;;;;;;;31.73;18.30;;;;;;;1.74;82.30;99041.77;124417;1147;22715;-63
2021/01/08 07:26:28;;;;;;;31.57;17.23;;;;;;;1.74;82.03;99045.27;124283;1146;22670;-63
2021/01/08 07:28:56;;;;;;;33.40;19.90;;;;;;;1.74;82.13;99041.77;124437;1146;22836;-63
2021/01/08 07:31:29;;;;;;;29.50;17.07;;;;;;;1.75;82.70;99038.05;124321;1146;22683;-63
2021/01/08 07:33:58;;;;;;;26.87;16.10;;;;;;;1.75;82.35;99046.92;124514;1146;22692;-63
2021/01/08 07:36:27;;;;;;;25.47;15.10;;;;;;;1.77;82.11;99052.09;124253;1146;22872;-63
2021/01/08 07:38:55;;;;;;;24.50;14.95;;;;;;;1.75;82.02;99057.66;124406;1146;22683;-63
2021/01/08 07:41:33;;;;;;;26.17;14.23;;;;;;;1.76;81.82;99061.17;124369;1146;22736;-63
2021/01/08 07:44:01;;;;;;;27.73;14.23;;;;;;;1.76;81.99;99064.69;124514;1146;22667;-64
2021/01/08 07:46:30;;;;;;;24.87;14.47;;;;;;;1.77;81.79;99062.83;124407;1146;22762;-64
2021/01/08 07:48:59;;;;;;;26.07;15.47;;;;;;;1.80;82.03;99072.33;124417;1146;22761;-64
2021/01/08 07:51:46;;;;;;;29.23;17.40;;;;;;;1.80;81.96;99072.33;124264;1146;22696;-63
2021/01/08 07:54:13;;;;;;;29.35;16.60;;;;;;;1.80;81.70;99066.95;124427;1146;22860;-65
2021/01/08 07:57:02;;;;;;;24.77;14.20;;;;;;;1.79;81.24;99082.25;124243;1145;22654;-64
2021/01/08 07:59:30;;;;;;;25.50;15.30;;;;;;;1.79;82.04;99071.50;124487;1146;22708;-64
2021/01/08 08:01:57;;;;;;;34.37;18.63;;;;;;;1.78;81.26;99077.91;124313;1145;23720;-64
2021/01/08 08:04:26;;;;;;;26.15;14.05;;;;;;;1.78;81.95;99078.73;124329;1146;22698;-65
2021/01/08 08:06:54;;;;;;;39.05;17.70;;;;;;;1.81;81.61;99084.72;124173;1146;22723;-65
2021/01/08 08:09:22;;;;;;;33.87;17.70;;;;;;;1.83;81.49;99083.48;124414;1146;22841;-65
2021/01/08 08:11:49;;;;;;;26.45;15.80;;;;;;;1.85;81.67;99086.78;124182;1146;22699;-65
2021/01/08 08:14:18;;;;;;;28.43;15.80;;;;;;;1.87;81.58;99091.95;124407;1146;22775;-65
2021/01/08 08:16:45;;;;;;;32.23;16.83;;;;;;;1.87;81.26;99094.63;124204;1146;22728;-63
2021/01/08 08:19:14;;;;;;;30.07;15.87;;;;;;;1.86;81.30;99084.92;124353;1147;23864;-63
2021/01/08 08:21:50;;;;;;;34.13;16.93;;;;;;;1.77;80.90;99060.97;124194;1146;23305;-63
2021/01/08 08:24:18;;;;;;;27.13;14.43;;;;;;;1.86;81.38;99071.48;124371;1146;22691;-63
2021/01/08 08:26:50;;;;;;;42.53;19.70;;;;;;;1.88;81.22;99070.22;124225;1146;23884;-63
2021/01/08 08:29:18;;;;;;;36.00;18.00;;;;;;;1.89;80.72;99084.47;124336;1146;22666;-62
2021/01/08 08:31:50;;;;;;;31.70;15.53;;;;;;;1.91;80.97;99082.41;124399;1146;22778;-63
2021/01/08 08:34:28;;;;;;;38.55;17.50;;;;;;;1.93;80.51;99093.77;124142;1146;22765;-64
2021/01/08 08:37:14;;;;;;;24.85;14.05;;;;;;;1.93;80.92;99099.13;124311;1145;22636;-64
2021/01/08 08:39:41;;;;;;;30.55;15.25;;;;;;;1.92;80.90;99100.17;123276;1146;22983;-64
2021/01/08 08:42:09;;;;;;;33.23;16.97;;;;;;;1.91;81.74;99096.66;124400;1146;22784;-64
2021/01/08 08:44:42;;;;;;;37.70;16.90;;;;;;;1.90;80.38;99083.44;124333;1146;22837;-64
2021/01/08 08:47:10;;;;;;;38.95;16.75;;;;;;;1.88;80.63;99093.56;124342;1146;22667;-65
2021/01/08 08:49:40;;;;;;;42.15;17.30;;;;;;;1.87;80.54;99100.00;124328;1145;22692;-64
2021/01/08 08:52:07;;;;;;;29.50;15.37;;;;;;;1.89;81.17;99105.95;124418;1146;22741;-65
2021/01/08 08:54:38;;;;;;;23.07;11.77;;;;;;;1.88;80.62;99094.39;124389;1146;22826;-65
2021/01/08 08:57:06;;;;;;;25.50;13.20;;;;;;;1.88;80.23;99105.13;124418;1146;22671;-65
2021/01/08 08:59:41;;;;;;;26.67;13.87;;;;;;;1.89;80.25;99103.27;124348;1146;22652;-64
2021/01/08 09:02:09;;;;;;;30.80;15.65;;;;;;;1.89;79.91;99105.95;124418;1146;22704;-64
2021/01/08 09:04:50;;;;;;;30.60;16.63;;;;;;;1.88;79.93;99096.25;124195;1146;22691;-64
2021/01/08 09:07:19;;;;;;;44.67;21.83;;;;;;;1.89;80.00;99111.33;124509;1146;22689;-64
2021/01/08 09:09:46;;;;;;;45.70;21.47;;;;;;;1.88;79.98;99110.51;124277;1146;22675;-64
2021/01/08 09:12:23;;;;;;;34.13;17.37;;;;;;;1.86;80.46;99109.92;124366;1146;22753;-64
2021/01/08 09:14:51;;;;;;;33.23;18.30;;;;;;;1.87;80.46;99108.89;124381;1146;22680;-64
2021/01/08 09:17:20;;;;;;;39.05;22.50;;;;;;;1.90;80.16;99112.98;120449;1147;22951;-64
2021/01/08 09:19:58;;;;;;;31.10;17.20;;;;;;;1.92;80.20;99105.55;124313;1146;22670;-64
2021/01/08 09:22:27;;;;;;;25.70;16.10;;;;;;;1.94;80.61;99114.22;124538;1146;23303;-64
2021/01/08 09:24:57;;;;;;;27.80;17.23;;;;;;;1.94;80.07;99119.59;124379;1146;23141;-64
2021/01/08 09:27:25;;;;;;;29.17;18.83;;;;;;;1.94;80.38;99116.91;124490;1146;22658;-64
2021/01/08 09:29:52;;;;;;;31.73;18.97;;;;;;;1.96;80.39;99117.52;124339;1147;23469;-63
2021/01/08 09:32:30;;;;;;;35.27;19.60;;;;;;;1.96;79.82;99115.66;124398;1146;22712;-63
2021/01/08 09:35:02;;;;;;;26.00;16.67;;;;;;;1.96;80.28;99120.20;124285;1146;22753;-64
2021/01/08 09:37:54;;;;;;;20.25;13.60;;;;;;;1.94;79.15;99114.22;124374;1146;22698;-63
2021/01/08 09:40:22;;;;;;;21.33;13.73;;;;;;;1.93;78.99;99116.08;124269;1147;22746;-64
2021/01/08 09:42:49;;;;;;;22.80;14.47;;;;;;;1.91;79.16;99120.84;124320;1146;22705;-63
2021/01/08 09:45:20;;;;;;;22.20;13.70;;;;;;;1.91;79.05;99122.70;124205;1147;23918;-63
2021/01/08 09:47:48;;;;;;;26.15;15.05;;;;;;;1.93;79.44;99118.77;124412;1146;23848;-63
2021/01/08 09:50:23;;;;;;;25.53;15.10;;;;;;;1.94;79.30;99125.79;124228;1146;23464;-63
2021/01/08 09:52:50;;;;;;;26.20;14.27;;;;;;;1.96;79.59;99114.84;124407;1146;22669;-63
2021/01/08 09:55:27;;;;;;;26.65;15.85;;;;;;;1.96;79.64;99120.20;124253;1146;22686;-63
2021/01/08 09:57:56;;;;;;;23.35;14.68;;;;;;;1.94;78.92;99115.05;124427;1146;22681;-63
2021/01/08 10:00:31;;;;;;;21.50;13.77;;;;;;;1.93;79.17;99118.77;124400;1146;22685;-63
2021/01/08 10:03:19;;;;;;;18.93;12.57;;;;;;;1.93;79.23;99117.94;124390;1146;22795;-63
2021/01/08 10:05:47;;;;;;;21.87;12.50;;;;;;;1.92;78.63;99116.29;124228;1146;22767;-63
2021/01/08 10:08:20;;;;;;;17.70;10.70;;;;;;;1.92;79.02;99111.73;124397;1146;22738;-63
2021/01/08 10:10:48;;;;;;;18.63;10.97;;;;;;;1.93;78.25;99115.25;124382;1146;22691;-64
2021/01/08 10:13:17;;;;;;;18.70;11.95;;;;;;;1.92;78.28;99113.60;124373;1146;23576;-63
2021/01/08 10:15:49;;;;;;;17.10;10.60;;;;;;;1.93;78.35;99118.77;124299;1145;22905;-63
2021/01/08 10:18:27;;;;;;;17.40;10.93;;;;;;;1.92;77.66;99116.29;124374;1146;22669;-63
2021/01/08 10:20:56;;;;;;;18.75;11.35;;;;;;;1.92;78.49;99118.97;124004;1146;22706;-63
2021/01/08 10:23:24;;;;;;;19.23;12.83;;;;;;;1.92;78.25;99124.34;124453;1146;22722;-63
2021/01/08 10:25:52;;;;;;;21.27;12.77;;;;;;;1.91;78.53;99126.20;124197;1146;23287;-63
2021/01/08 10:28:20;;;;;;;20.30;12.43;;;;;;;1.89;77.67;99130.96;124398;1146;22761;-63
2021/01/08 10:30:57;;;;;;;18.00;10.75;;;;;;;1.90;78.34;99126.41;124261;1146;22783;-63
2021/01/08 10:33:25;;;;;;;19.95;11.12;;;;;;;1.88;77.78;99137.37;124463;1146;22696;-63
2021/01/08 10:35:55;;;;;;;17.47;10.23;;;;;;;1.88;77.38;99134.68;124252;1145;22759;-63
2021/01/08 10:38:22;;;;;;;19.45;11.35;;;;;;;1.87;77.51;99138.44;124447;1146;22655;-63
2021/01/08 10:40:50;;;;;;;19.90;11.45;;;;;;;1.75;77.31;99111.38;124256;1146;23589;-63
2021/01/08 10:43:17;;;;;;;20.15;11.20;;;;;;;1.84;77.17;99127.28;124418;1146;24121;-63
2021/01/08 10:45:45;;;;;;;14.93;9.93;;;;;;;1.82;76.49;99123.98;124276;1146;22656;-63
2021/01/08 10:48:15;;;;;;;14.50;9.20;;;;;;;1.80;76.71;99116.13;124443;1146;22755;-63
2021/01/08 10:50:43;;;;;;;23.25;14.85;;;;;;;1.79;75.82;99119.84;124220;1146;22793;-63
2021/01/08 10:53:10;;;;;;;17.63;11.27;;;;;;;1.79;76.52;99133.27;124438;1146;22693;-63
2021/01/08 10:55:38;;;;;;;21.80;12.75;;;;;;;1.80;76.68;99129.55;123492;1146;23014;-62
2021/01/08 10:58:05;;;;;;;25.70;16.30;;;;;;;1.82;76.30;99129.34;119809;1147;27312;-69
2021/01/08 11:00:33;;;;;;;24.17;15.47;;;;;;;1.84;76.35;99140.71;119905;1147;22896;-67
2021/01/08 11:03:01;;;;;;;21.97;13.33;;;;;;;1.87;77.01;99129.55;119753;1146;25416;-67
2021/01/08 11:05:30;;;;;;;23.25;13.25;;;;;;;1.88;76.76;99131.17;119840;1146;22920;-68
2021/01/08 11:07:57;;;;;;;19.10;11.70;;;;;;;1.89;76.87;99130.96;119746;1146;28599;-69
2021/01/08 11:10:25;;;;;;;17.80;11.40;;;;;;;1.87;76.86;99130.38;119868;1147;24709;-68
2021/01/08 11:12:52;;;;;;;19.30;10.40;;;;;;;1.86;76.69;99131.41;124191;1145;22735;-68
2021/01/08 11:15:20;;;;;;;13.30;9.23;;;;;;;1.85;76.08;99134.30;124464;1146;22672;-68
2021/01/08 11:17:47;;;;;;;14.00;8.90;;;;;;;1.86;76.22;99133.27;124177;1147;22677;-69
2021/01/08 11:20:16;;;;;;;14.53;8.57;;;;;;;1.83;75.78;99142.57;124464;1147;23416;-69
2021/01/08 11:22:43;;;;;;;13.90;8.70;;;;;;;1.84;75.39;99138.84;124256;1145;22719;-69
2021/01/08 11:25:12;;;;;;;13.75;8.50;;;;;;;1.82;75.85;99129.34;124423;1147;23366;-68
2021/01/08 11:27:43;;;;;;;15.95;8.35;;;;;;;1.82;75.11;99137.41;124485;1146;22707;-67
2021/01/08 11:30:29;;;;;;;13.35;8.10;;;;;;;1.81;74.64;99138.44;123972;1146;26203;-68
2021/01/08 11:32:56;;;;;;;14.73;9.27;;;;;;;1.81;74.93;99138.44;124286;1146;22681;-68
2021/01/08 11:35:24;;;;;;;16.13;9.20;;;;;;;1.81;74.80;99139.27;124263;1147;22696;-68